createdAt,value
2023-01-28T00:01:17.835Z,99656.44
2023-01-28T00:03:44.521Z,99648.72
2023-01-28T00:06:15.256Z,99648.69
2023-01-28T00:08:42.152Z,99649.94
2023-01-28T00:11:11.838Z,99647.88
2023-01-28T00:13:39.027Z,99653.41
2023-01-28T00:16:08.836Z,99651.06
2023-01-28T00:18:36.135Z,99649.28
2023-01-28T00:21:04.475Z,99653.28
2023-01-28T00:23:33.766Z,99643.88
2023-01-28T00:26:02.115Z,99655.06
2023-01-28T00:28:29.104Z,99652.63
2023-01-28T00:30:56.081Z,99647.94
2023-01-28T00:33:23.282Z,99648.59
2023-01-28T00:36:01.102Z,99641.41
2023-01-28T00:38:28.751Z,99647.34
2023-01-28T00:40:55.687Z,99651.34
2023-01-28T00:43:23.373Z,99642.63
2023-01-28T00:45:50.457Z,99642.34
2023-01-28T00:48:17.195Z,99636.84
2023-01-28T00:50:45.600Z,99642.75
2023-01-28T00:53:12.243Z,99646.13
2023-01-28T00:55:38.997Z,99641.84
2023-01-28T00:58:05.661Z,99639.31
2023-01-28T01:00:32.250Z,99631.59
2023-01-28T01:02:59.538Z,99644.28
2023-01-28T01:05:26.251Z,99652.19
2023-01-28T01:07:52.858Z,99653.69
2023-01-28T01:10:20.457Z,99657.69
2023-01-28T01:12:48.571Z,99657.28
2023-01-28T01:15:16.237Z,99659.06
2023-01-28T01:17:45.926Z,99655.34
2023-01-28T01:20:15.799Z,99658.13
2023-01-28T01:22:42.456Z,99658.97
2023-01-28T01:25:09.426Z,99665.75
2023-01-28T01:27:36.274Z,99667.34
2023-01-28T01:30:03.359Z,99668.47
2023-01-28T01:32:31.574Z,99670.16
2023-01-28T01:34:58.583Z,99660.88
2023-01-28T01:37:25.873Z,99660.31
2023-01-28T01:39:52.518Z,99663.09
2023-01-28T01:42:19.349Z,99664.72
2023-01-28T01:44:56.097Z,99669.41
2023-01-28T01:47:27.933Z,99672.63
2023-01-28T01:49:55.338Z,99667.78
2023-01-28T01:52:26.785Z,99671.03
2023-01-28T01:54:58.306Z,99663.38
2023-01-28T01:57:28.483Z,99667.63
2023-01-28T01:59:55.867Z,99659.78
2023-01-28T02:02:23.422Z,99667.69
2023-01-28T02:04:50.212Z,99667.56
2023-01-28T02:07:17.511Z,99665.03
2023-01-28T02:09:44.184Z,99670.69
2023-01-28T02:12:17.999Z,99673.13
2023-01-28T02:14:48.743Z,99665.44
2023-01-28T02:17:15.728Z,99670.16
2023-01-28T02:19:51.716Z,99666.56
2023-01-28T02:22:26.554Z,99669.19
2023-01-28T02:25:11.296Z,99675.69
2023-01-28T02:27:49.933Z,99674.38
2023-01-28T02:30:23.056Z,99669.44
2023-01-28T02:33:00.758Z,99663.22
2023-01-28T02:35:41.588Z,99672.34
2023-01-28T02:38:11.655Z,99654.13
2023-01-28T02:40:58.935Z,99654.94
2023-01-28T02:43:43.182Z,99656.19
2023-01-28T02:46:43.713Z,99651.31
2023-01-28T02:49:14.782Z,99646.09
2023-01-28T02:51:50.454Z,99663.78
2023-01-28T02:54:35.860Z,99657.72
2023-01-28T02:57:39.925Z,99666.44
2023-01-28T03:00:23.490Z,99668.91
2023-01-28T03:02:59.666Z,99662.41
2023-01-28T03:05:31.876Z,99666.28
2023-01-28T03:07:59.171Z,99669.94
2023-01-28T03:10:26.766Z,99669.50
2023-01-28T03:13:14.473Z,99664.94
2023-01-28T03:16:05.532Z,99669.47
2023-01-28T03:19:02.680Z,99674.50
2023-01-28T03:21:58.094Z,99680.84
2023-01-28T03:24:48.137Z,99671.03
2023-01-28T03:27:47.439Z,99670.75
2023-01-28T03:30:38.257Z,99672.53
2023-01-28T03:33:29.344Z,99680.47
2023-01-28T03:36:14.664Z,99680.78
2023-01-28T03:38:42.849Z,99678.97
2023-01-28T03:41:12.595Z,99678.13
2023-01-28T03:43:41.314Z,99682.81
2023-01-28T03:46:08.012Z,99682.97
2023-01-28T03:48:34.613Z,99682.81
2023-01-28T03:51:06.386Z,99695.41
2023-01-28T03:53:33.375Z,99694.19
2023-01-28T03:56:00.006Z,99693.78
2023-01-28T03:58:40.257Z,99691.69
2023-01-28T04:01:06.946Z,99689.59
2023-01-28T04:03:33.494Z,99691.25
2023-01-28T04:06:06.979Z,99701.38
2023-01-28T04:09:05.973Z,99695.69
2023-01-28T04:11:52.889Z,99700.81
2023-01-28T04:14:27.447Z,99692.94
2023-01-28T04:16:59.050Z,99686.44
2023-01-28T04:19:26.570Z,99692.94
2023-01-28T04:21:54.987Z,99691.56
2023-01-28T04:24:22.403Z,99688.53
2023-01-28T04:26:49.198Z,99709.78
2023-01-28T04:29:16.069Z,99697.78
2023-01-28T04:31:42.733Z,99698.75
2023-01-28T04:34:33.962Z,99698.75
2023-01-28T04:37:21.342Z,99695.28
2023-01-28T04:40:13.347Z,99700.41
2023-01-28T04:42:42.322Z,99701.25
2023-01-28T04:45:18.675Z,99699.56
2023-01-28T04:47:59.177Z,99712.84
2023-01-28T04:50:46.703Z,99705.13
2023-01-28T04:53:39.580Z,99704.41
2023-01-28T04:56:08.041Z,99707.75
2023-01-28T04:58:36.106Z,99709.38
2023-01-28T05:01:06.174Z,99712.72
2023-01-28T05:03:35.322Z,99713.53
2023-01-28T05:06:04.506Z,99707.88
2023-01-28T05:08:38.292Z,99710.91
2023-01-28T05:11:04.967Z,99719.75
2023-01-28T05:13:31.574Z,99710.38
2023-01-28T05:15:58.414Z,99726.13
2023-01-28T05:18:25.088Z,99717.84
2023-01-28T05:21:03.615Z,99718.91
2023-01-28T05:23:31.889Z,99709.25
2023-01-28T05:25:59.231Z,99712.41
2023-01-28T05:28:26.369Z,99708.97
2023-01-28T05:30:53.317Z,99713.25
2023-01-28T05:33:20.096Z,99718.78
2023-01-28T05:35:46.692Z,99722.50
2023-01-28T05:38:15.306Z,99722.94
2023-01-28T05:40:42.281Z,99718.09
2023-01-28T05:43:09.032Z,99727.50
2023-01-28T05:45:43.557Z,99727.63
2023-01-28T05:48:19.141Z,99727.50
2023-01-28T05:51:05.233Z,99726.50
2023-01-28T05:53:34.740Z,99729.00
2023-01-28T05:56:01.395Z,99730.97
2023-01-28T05:58:32.160Z,99736.34
2023-01-28T06:01:02.202Z,99725.13
2023-01-28T06:03:36.978Z,99729.00
2023-01-28T06:06:03.897Z,99730.97
2023-01-28T06:08:31.282Z,99729.56
2023-01-28T06:10:58.658Z,99734.69
2023-01-28T06:13:25.291Z,99736.34
2023-01-28T06:16:15.093Z,99741.72
2023-01-28T06:19:00.988Z,99746.31
2023-01-28T06:21:30.049Z,99739.81
2023-01-28T06:23:57.880Z,99749.91
2023-01-28T06:26:24.571Z,99752.94
2023-01-28T06:28:51.458Z,99754.44
2023-01-28T06:31:18.435Z,99769.53
2023-01-28T06:33:45.116Z,99757.06
2023-01-28T06:36:11.724Z,99758.03
2023-01-28T06:38:38.497Z,99767.44
2023-01-28T06:41:05.187Z,99766.22
2023-01-28T06:43:31.775Z,99771.59
2023-01-28T06:45:58.729Z,99770.22
2023-01-28T06:48:26.137Z,99774.50
2023-01-28T06:50:53.009Z,99770.34
2023-01-28T06:53:20.429Z,99774.22
2023-01-28T06:55:47.068Z,99775.75
2023-01-28T06:58:13.816Z,99769.94
2023-01-28T07:00:40.547Z,99773.13
2023-01-28T07:03:07.483Z,99780.59
2023-01-28T07:05:34.313Z,99780.59
2023-01-28T07:08:02.292Z,99771.75
2023-01-28T07:10:29.669Z,99775.03
2023-01-28T07:12:56.403Z,99782.63
2023-01-28T07:15:23.128Z,99775.84
2023-01-28T07:17:49.736Z,99778.34
2023-01-28T07:20:17.344Z,99786.34
2023-01-28T07:22:45.451Z,99775.72
2023-01-28T07:25:13.565Z,99776.38
2023-01-28T07:27:46.116Z,99775.81
2023-01-28T07:30:15.572Z,99787.72
2023-01-28T07:32:42.636Z,99779.94
2023-01-28T07:35:09.641Z,99779.09
2023-01-28T07:37:36.280Z,99779.38
2023-01-28T07:40:03.432Z,99792.97
2023-01-28T07:42:30.504Z,99780.91
2023-01-28T07:45:00.699Z,99802.09
2023-01-28T07:47:27.381Z,99796.16
2023-01-28T07:49:54.070Z,99804.88
2023-01-28T07:52:20.751Z,99808.47
2023-01-28T07:54:47.369Z,99811.94
2023-01-28T07:57:14.196Z,99814.56
2023-01-28T07:59:40.897Z,99802.97
2023-01-28T08:02:11.421Z,99817.19
2023-01-28T08:04:40.452Z,99822.03
2023-01-28T08:07:08.263Z,99817.47
2023-01-28T08:09:35.278Z,99821.75
2023-01-28T08:12:02.713Z,99818.84
2023-01-28T08:14:29.603Z,99808.88
2023-01-28T08:16:56.507Z,99822.19
2023-01-28T08:19:23.167Z,99825.91
2023-01-28T08:21:50.536Z,99827.28
2023-01-28T08:24:17.778Z,99829.22
2023-01-28T08:26:45.116Z,99827.69
2023-01-28T08:29:12.447Z,99836.28
2023-01-28T08:31:39.530Z,99835.44
2023-01-28T08:34:06.417Z,99841.53
2023-01-28T08:36:33.227Z,99836.53
2023-01-28T08:39:00.130Z,99845.34
2023-01-28T08:41:27.009Z,99847.75
2023-01-28T08:43:53.647Z,99847.31
2023-01-28T08:46:20.337Z,99861.25
2023-01-28T08:48:50.397Z,99854.75
2023-01-28T08:51:24.319Z,99853.63
2023-01-28T09:02:31.970Z,99847.38
2023-01-28T09:05:00.526Z,99844.22
2023-01-28T09:07:27.997Z,99854.56
2023-01-28T09:09:55.013Z,99854.00
2023-01-28T09:12:22.112Z,99853.88
2023-01-28T09:14:48.789Z,99869.69
2023-01-28T09:17:15.456Z,99863.56
2023-01-28T09:19:42.083Z,99869.78
2023-01-28T09:22:08.704Z,99862.09
2023-01-28T09:24:37.272Z,99869.00
2023-01-28T09:27:05.189Z,99868.56
2023-01-28T09:29:34.061Z,99875.00
2023-01-28T09:32:01.743Z,99885.72
2023-01-28T09:34:29.724Z,99873.22
2023-01-28T09:36:57.114Z,99881.94
2023-01-28T09:39:25.692Z,99875.84
2023-01-28T09:41:59.077Z,99881.47
